createdAt,value
2019-02-15T00:02:15.094Z,0.30
2019-02-15T00:04:42.938Z,0.30
2019-02-15T00:07:10.860Z,0.30
2019-02-15T00:09:38.781Z,0.30
2019-02-15T00:12:06.675Z,0.30
2019-02-15T00:14:45.215Z,0.30
2019-02-15T00:17:14.436Z,0.30
2019-02-15T00:19:43.964Z,0.30
2019-02-15T00:22:11.888Z,0.30
2019-02-15T00:24:39.802Z,0.30
2019-02-15T00:27:07.700Z,0.30
2019-02-15T00:29:35.719Z,0.30
2019-02-15T00:32:03.677Z,0.30
2019-02-15T00:34:31.644Z,0.30
2019-02-15T00:36:59.491Z,0.20
2019-02-15T00:39:27.401Z,0.10
2019-02-15T00:41:55.280Z,0.10
2019-02-15T00:44:23.162Z,0.10
2019-02-15T00:47:04.584Z,0.00
2019-02-15T00:49:34.108Z,0.00
2019-02-15T00:52:03.635Z,0.00
2019-02-15T00:54:33.181Z,0.00
2019-02-15T00:57:14.710Z,0.00
2019-02-15T00:59:44.192Z,0.00
2019-02-15T01:02:13.670Z,-0.10
2019-02-15T01:04:51.996Z,-0.10
2019-02-15T01:07:21.579Z,-0.10
2019-02-15T01:09:53.510Z,0.00
2019-02-15T01:12:23.126Z,0.00
2019-02-15T01:14:50.980Z,-0.10
2019-02-15T01:17:18.901Z,-0.10
2019-02-15T01:19:46.823Z,-0.10
2019-02-15T01:22:14.738Z,-0.10
2019-02-15T01:24:42.690Z,-0.10
2019-02-15T01:27:18.291Z,-0.10
2019-02-15T01:30:03.888Z,-0.20
2019-02-15T01:32:33.401Z,-0.20
2019-02-15T01:35:02.974Z,-0.30
2019-02-15T01:37:50.124Z,-0.30
2019-02-15T01:40:28.272Z,-0.30
2019-02-15T01:42:57.818Z,-0.30
2019-02-15T01:45:27.352Z,-0.20
2019-02-15T01:47:55.218Z,-0.20
2019-02-15T01:50:23.064Z,-0.20
2019-02-15T01:52:50.944Z,-0.30
2019-02-15T01:55:18.783Z,-0.30
2019-02-15T01:57:46.735Z,-0.30
2019-02-15T02:00:15.928Z,-0.30
2019-02-15T02:02:43.912Z,-0.40
2019-02-15T02:05:11.927Z,-0.40
2019-02-15T02:07:39.748Z,-0.40
2019-02-15T02:10:08.803Z,-0.50
2019-02-15T02:12:36.727Z,-0.50
2019-02-15T02:15:06.153Z,-0.50
2019-02-15T02:17:34.042Z,-0.50
2019-02-15T02:20:02.019Z,-0.40
2019-02-15T02:22:29.939Z,-0.40
2019-02-15T02:24:57.855Z,-0.40
2019-02-15T02:27:25.810Z,-0.40
2019-02-15T02:29:53.776Z,-0.50
2019-02-15T02:32:21.613Z,-0.50
2019-02-15T02:34:49.452Z,-0.60
2019-02-15T02:37:17.410Z,-0.60
2019-02-15T02:39:45.304Z,-0.60
2019-02-15T02:42:13.183Z,-0.60
2019-02-15T02:44:41.095Z,-0.70
2019-02-15T02:47:09.036Z,-0.70
2019-02-15T02:49:36.985Z,-0.70
2019-02-15T02:52:04.898Z,-0.70
2019-02-15T02:54:32.727Z,-0.80
2019-02-15T02:57:00.657Z,-0.80
2019-02-15T02:59:28.592Z,-0.90
2019-02-15T03:01:56.534Z,-0.90
2019-02-15T03:04:24.479Z,-0.90
2019-02-15T03:06:52.371Z,-0.90
2019-02-15T03:09:20.305Z,-0.90
2019-02-15T03:11:48.126Z,-0.90
2019-02-15T03:14:16.087Z,-0.90
2019-02-15T03:16:43.976Z,-1.00
2019-02-15T03:19:11.947Z,-1.00
2019-02-15T03:21:39.863Z,-1.00
2019-02-15T03:24:07.725Z,-1.00
2019-02-15T03:26:35.648Z,-1.00
2019-02-15T03:29:03.579Z,-1.00
2019-02-15T03:31:31.436Z,-1.10
2019-02-15T03:33:59.377Z,-1.10
2019-02-15T03:36:40.839Z,-1.10
2019-02-15T03:39:25.526Z,-1.10
2019-02-15T03:41:53.553Z,-1.10
2019-02-15T03:44:22.770Z,-1.10
2019-02-15T03:46:50.724Z,-1.20
2019-02-15T03:49:18.681Z,-1.20
2019-02-15T03:51:46.604Z,-1.20
2019-02-15T03:54:14.531Z,-1.20
2019-02-15T03:56:42.494Z,-1.20
2019-02-15T03:59:10.391Z,-1.20
2019-02-15T04:01:38.383Z,-1.30
2019-02-15T04:04:06.356Z,-1.30
2019-02-15T04:06:34.293Z,-1.30
2019-02-15T04:09:02.103Z,-1.30
2019-02-15T04:11:30.036Z,-1.30
2019-02-15T04:13:58.033Z,-1.30
2019-02-15T04:16:25.952Z,-1.30
2019-02-15T04:18:53.856Z,-1.30
2019-02-15T04:21:21.756Z,-1.30
2019-02-15T04:23:49.674Z,-1.30
2019-02-15T04:26:17.531Z,-1.30
2019-02-15T04:28:45.456Z,-1.30
2019-02-15T04:31:13.380Z,-1.30
2019-02-15T04:33:41.319Z,-1.30
2019-02-15T04:36:09.243Z,-1.40
2019-02-15T04:38:37.187Z,-1.40
2019-02-15T04:41:05.052Z,-1.40
2019-02-15T04:43:32.969Z,-1.50
2019-02-15T04:46:00.871Z,-1.40
2019-02-15T04:48:28.801Z,-1.50
2019-02-15T04:50:56.721Z,-1.40
2019-02-15T04:53:24.656Z,-1.50
2019-02-15T04:55:52.558Z,-1.50
2019-02-15T04:58:20.401Z,-1.50
2019-02-15T05:00:48.202Z,-1.50
2019-02-15T05:03:16.221Z,-1.50
2019-02-15T05:05:45.759Z,-1.40
2019-02-15T05:08:13.601Z,-1.40
2019-02-15T05:10:41.539Z,-1.40
2019-02-15T05:13:09.428Z,-1.40
2019-02-15T05:15:37.364Z,-1.40
2019-02-15T05:18:05.273Z,-1.40
2019-02-15T05:20:33.172Z,-1.40
2019-02-15T05:23:01.144Z,-1.40
2019-02-15T05:25:29.064Z,-1.50
2019-02-15T05:27:57.003Z,-1.50
2019-02-15T05:30:24.941Z,-1.50
2019-02-15T05:32:52.855Z,-1.50
2019-02-15T05:35:20.745Z,-1.50
2019-02-15T05:37:48.671Z,-1.50
2019-02-15T05:40:16.667Z,-1.50
2019-02-15T05:42:44.633Z,-1.50
2019-02-15T05:45:12.558Z,-1.50
2019-02-15T05:47:40.461Z,-1.50
2019-02-15T05:50:08.415Z,-1.50
2019-02-15T05:52:36.367Z,-1.50
2019-02-15T05:55:04.880Z,-2.60
2019-02-15T05:57:32.910Z,-1.60
2019-02-15T06:00:00.763Z,-1.50
2019-02-15T06:02:28.661Z,-1.60
2019-02-15T06:04:56.531Z,-1.60
2019-02-15T06:07:24.432Z,-1.60
2019-02-15T06:09:52.287Z,-1.60
2019-02-15T06:12:20.143Z,-1.60
2019-02-15T06:14:48.058Z,-1.60
2019-02-15T06:17:16.080Z,-1.60
2019-02-15T06:19:44.170Z,-1.60
2019-02-15T06:22:12.046Z,-1.60
2019-02-15T06:24:39.963Z,-1.60
2019-02-15T06:27:07.839Z,-1.60
2019-02-15T06:29:35.702Z,-1.70
2019-02-15T06:32:03.578Z,-1.70
2019-02-15T06:34:31.466Z,-1.70
2019-02-15T06:36:59.419Z,-1.70
2019-02-15T06:39:27.257Z,-1.70
2019-02-15T06:41:55.211Z,-1.70
2019-02-15T06:44:23.148Z,-1.70
2019-02-15T06:46:51.161Z,-1.60
2019-02-15T06:49:19.068Z,-1.50
2019-02-15T06:51:47.016Z,-1.60
2019-02-15T06:54:14.882Z,-1.60
2019-02-15T06:56:42.718Z,-1.50
2019-02-15T06:59:12.211Z,-1.50
2019-02-15T07:01:44.722Z,-1.50
2019-02-15T07:04:17.127Z,-1.50
2019-02-15T07:06:44.937Z,-1.40
2019-02-15T07:09:12.810Z,-1.40
2019-02-15T07:11:40.668Z,-1.30
2019-02-15T07:14:08.606Z,-1.20
2019-02-15T07:16:36.531Z,-1.20
2019-02-15T07:19:04.430Z,-1.10
2019-02-15T07:21:32.388Z,-1.10
2019-02-15T07:24:00.229Z,-1.00
2019-02-15T07:26:28.179Z,-0.90
2019-02-15T07:28:56.103Z,-0.80
2019-02-15T07:31:24.082Z,-0.80
2019-02-15T07:33:51.895Z,-0.60
2019-02-15T07:36:19.822Z,-0.50
2019-02-15T07:38:47.766Z,-0.50
2019-02-15T07:41:15.674Z,-0.40
2019-02-15T07:43:43.636Z,-0.30
2019-02-15T07:46:11.459Z,-0.20
2019-02-15T07:48:39.420Z,-0.10
2019-02-15T07:51:09.638Z,0.00
2019-02-15T07:53:36.844Z,0.10
2019-02-15T07:56:04.800Z,0.20
2019-02-15T07:58:32.631Z,0.20
2019-02-15T08:01:00.530Z,0.30
2019-02-15T08:03:28.366Z,0.50
2019-02-15T08:05:56.224Z,0.60
2019-02-15T08:08:24.171Z,0.70
2019-02-15T08:10:52.072Z,0.90
2019-02-15T08:13:20.051Z,1.00
2019-02-15T08:15:52.114Z,1.20
2019-02-15T08:18:17.446Z,1.30
2019-02-15T08:20:45.359Z,1.40
2019-02-15T08:23:13.274Z,1.60
2019-02-15T08:25:41.227Z,1.80
2019-02-15T08:28:09.039Z,1.90
2019-02-15T08:30:36.925Z,2.00
2019-02-15T08:33:04.768Z,2.20
2019-02-15T08:35:32.693Z,2.30
2019-02-15T08:38:00.600Z,2.50
2019-02-15T08:40:28.528Z,2.70
2019-02-15T08:42:56.411Z,2.80
2019-02-15T08:45:24.362Z,3.00
2019-02-15T08:47:52.272Z,3.20
2019-02-15T08:50:20.205Z,3.30
2019-02-15T08:52:48.084Z,3.50
2019-02-15T08:55:16.019Z,3.70
2019-02-15T08:57:43.898Z,3.80
2019-02-15T09:00:12.289Z,4.00
2019-02-15T09:02:40.289Z,4.20
2019-02-15T09:05:09.419Z,4.30
2019-02-15T09:07:37.352Z,4.50
2019-02-15T09:10:06.703Z,4.70
2019-02-15T09:12:34.620Z,4.80
2019-02-15T09:15:02.600Z,5.00
2019-02-15T09:17:30.484Z,5.20
2019-02-15T09:19:58.470Z,5.30
2019-02-15T09:22:26.379Z,5.50
2019-02-15T09:24:54.220Z,5.70
2019-02-15T09:27:26.535Z,5.90
2019-02-15T09:29:54.524Z,6.00
2019-02-15T09:32:22.459Z,6.30
2019-02-15T09:34:50.304Z,6.50
2019-02-15T09:37:18.260Z,6.70
2019-02-15T09:39:46.170Z,6.90
2019-02-15T09:42:14.045Z,7.10
2019-02-15T09:44:41.976Z,7.30
2019-02-15T09:47:09.867Z,7.40
2019-02-15T09:49:37.790Z,7.60
2019-02-15T09:52:05.638Z,7.70
2019-02-15T09:54:33.564Z,7.90
2019-02-15T09:57:01.517Z,8.10
2019-02-15T09:59:29.454Z,8.30
2019-02-15T10:01:57.323Z,8.50
2019-02-15T10:04:25.176Z,8.70
2019-02-15T10:06:53.207Z,8.90
2019-02-15T10:09:21.047Z,9.10
2019-02-15T10:11:48.889Z,9.30
2019-02-15T10:14:16.811Z,9.50
2019-02-15T10:16:44.751Z,9.70
2019-02-15T10:19:20.593Z,9.90
2019-02-15T10:21:42.243Z,10.10
2019-02-15T10:24:10.192Z,10.30
2019-02-15T10:26:38.099Z,10.50
2019-02-15T10:29:06.058Z,10.60
2019-02-15T10:31:33.983Z,10.80
2019-02-15T10:34:01.894Z,11.00
2019-02-15T10:36:29.832Z,11.20
2019-02-15T10:38:57.786Z,11.40
2019-02-15T10:41:25.672Z,11.50
2019-02-15T10:43:53.645Z,11.70
2019-02-15T10:46:21.547Z,11.80
2019-02-15T10:48:49.451Z,12.00
2019-02-15T10:51:17.416Z,12.10
2019-02-15T10:53:45.382Z,12.20
2019-02-15T10:56:13.247Z,12.30
2019-02-15T10:58:41.117Z,12.40
2019-02-15T11:01:09.074Z,12.50
2019-02-15T11:03:36.900Z,12.70
2019-02-15T11:06:04.945Z,12.80
2019-02-15T11:08:32.859Z,12.90
2019-02-15T11:11:00.779Z,13.10
2019-02-15T11:13:28.714Z,13.20
2019-02-15T11:15:56.610Z,13.60
2019-02-15T11:18:24.479Z,13.40
2019-02-15T11:20:52.328Z,13.40
2019-02-15T11:23:20.187Z,13.50
2019-02-15T11:25:48.120Z,13.70
2019-02-15T11:28:16.066Z,13.80
2019-02-15T11:30:44.056Z,13.80
2019-02-15T11:33:11.949Z,13.90
2019-02-15T11:35:39.804Z,14.00
2019-02-15T11:38:07.705Z,14.10
2019-02-15T11:40:35.640Z,14.10
2019-02-15T11:43:03.569Z,14.20
2019-02-15T11:45:31.460Z,14.30
2019-02-15T11:47:59.379Z,14.40
2019-02-15T11:50:27.288Z,14.50
2019-02-15T11:52:55.179Z,14.60
2019-02-15T11:55:23.116Z,14.70
2019-02-15T11:57:51.048Z,14.80
2019-02-15T12:00:35.521Z,14.90
2019-02-15T12:03:03.463Z,15.00
2019-02-15T12:05:31.351Z,15.20
2019-02-15T12:07:59.316Z,15.50
2019-02-15T12:10:27.318Z,15.70
2019-02-15T12:12:55.239Z,15.90
2019-02-15T12:15:23.150Z,16.10
2019-02-15T12:17:51.055Z,16.30
2019-02-15T12:20:18.975Z,16.40
2019-02-15T12:22:46.919Z,16.50
2019-02-15T12:25:14.841Z,16.80
2019-02-15T12:27:42.765Z,16.80
2019-02-15T12:30:12.207Z,16.90
2019-02-15T12:32:40.118Z,16.90
2019-02-15T12:35:08.690Z,17.10
2019-02-15T12:37:36.507Z,17.20
2019-02-15T12:40:05.317Z,17.40
2019-02-15T12:42:33.248Z,17.50
2019-02-15T12:45:01.211Z,17.50
2019-02-15T12:47:29.032Z,17.60
2019-02-15T12:49:56.987Z,17.60
2019-02-15T12:52:24.907Z,17.50
2019-02-15T12:54:52.731Z,17.50
2019-02-15T12:57:20.593Z,17.60
2019-02-15T12:59:48.442Z,17.80
2019-02-15T13:02:17.165Z,17.80
2019-02-15T13:04:45.313Z,17.60
2019-02-15T13:07:13.156Z,17.70
2019-02-15T13:09:41.113Z,17.80
2019-02-15T13:12:09.067Z,17.90
2019-02-15T13:14:36.974Z,17.90
2019-02-15T13:17:04.903Z,17.80
2019-02-15T13:19:32.783Z,17.50
2019-02-15T13:22:00.695Z,17.60
2019-02-15T13:24:28.580Z,17.80
2019-02-15T13:26:56.531Z,18.00
2019-02-15T13:29:24.523Z,18.20
2019-02-15T13:31:52.437Z,18.30
2019-02-15T13:34:20.308Z,18.30
2019-02-15T13:36:48.140Z,18.40
2019-02-15T13:39:16.145Z,18.50
2019-02-15T13:41:44.067Z,18.70
2019-02-15T13:44:11.997Z,18.90
2019-02-15T13:46:39.919Z,19.10
2019-02-15T13:49:07.780Z,19.40
2019-02-15T13:51:35.824Z,19.70
2019-02-15T13:54:03.965Z,19.80
2019-02-15T13:56:31.851Z,20.00
2019-02-15T13:58:59.780Z,20.30
2019-02-15T14:01:27.695Z,20.50
2019-02-15T14:03:55.618Z,20.60
2019-02-15T14:06:23.522Z,20.80
2019-02-15T14:08:51.475Z,21.20
2019-02-15T14:11:19.387Z,21.60
2019-02-15T14:13:47.322Z,21.90
2019-02-15T14:16:15.253Z,21.80
2019-02-15T14:18:43.227Z,21.30
2019-02-15T14:21:11.231Z,20.80
2019-02-15T14:23:39.125Z,20.40
2019-02-15T14:26:07.025Z,20.50
2019-02-15T14:28:34.955Z,20.90
2019-02-15T14:31:02.979Z,21.30
2019-02-15T14:33:30.932Z,21.70
2019-02-15T14:35:58.895Z,22.40
2019-02-15T14:38:28.193Z,22.90
2019-02-15T14:40:56.119Z,23.30
2019-02-15T14:43:23.999Z,23.30
2019-02-15T14:45:52.959Z,23.50
2019-02-15T14:48:20.817Z,23.60
2019-02-15T14:50:48.695Z,23.80
2019-02-15T14:53:16.578Z,24.10
2019-02-15T14:55:44.395Z,24.40
2019-02-15T14:58:12.372Z,24.10
2019-02-15T15:00:40.291Z,24.50
2019-02-15T15:03:08.195Z,24.60
2019-02-15T15:05:36.155Z,24.10
2019-02-15T15:08:04.053Z,24.20
2019-02-15T15:10:32.006Z,24.40
2019-02-15T15:12:59.826Z,24.40
2019-02-15T15:15:27.779Z,24.40
2019-02-15T15:18:05.896Z,24.10
2019-02-15T15:20:25.280Z,24.20
2019-02-15T15:22:53.136Z,24.10
2019-02-15T15:25:21.094Z,24.30
2019-02-15T15:27:48.985Z,24.40
2019-02-15T15:30:18.338Z,24.70
2019-02-15T15:32:46.564Z,24.60
2019-02-15T15:35:14.487Z,24.60
2019-02-15T15:37:42.342Z,24.30
2019-02-15T15:40:13.489Z,24.10
2019-02-15T15:42:41.418Z,24.10
2019-02-15T15:45:10.343Z,23.90
2019-02-15T15:47:38.271Z,23.70
2019-02-15T15:50:07.438Z,23.40
2019-02-15T15:52:35.687Z,23.30
2019-02-15T15:55:03.976Z,23.50
2019-02-15T15:57:31.850Z,23.30
2019-02-15T15:59:59.774Z,23.20
2019-02-15T16:02:27.736Z,23.00
2019-02-15T16:04:55.584Z,23.00
2019-02-15T16:07:23.531Z,22.90
2019-02-15T16:09:51.415Z,22.70
2019-02-15T16:12:19.308Z,22.20
2019-02-15T16:14:47.171Z,21.50
2019-02-15T16:17:15.082Z,20.60
2019-02-15T16:19:49.247Z,19.50
2019-02-15T16:22:12.504Z,18.40
2019-02-15T16:24:40.427Z,17.40
2019-02-15T16:27:08.370Z,16.60
2019-02-15T16:29:36.320Z,15.90
2019-02-15T16:32:04.214Z,15.40
2019-02-15T16:34:32.134Z,14.90
2019-02-15T16:37:00.068Z,14.50
2019-02-15T16:39:27.968Z,14.20
2019-02-15T16:41:55.887Z,13.90
2019-02-15T16:44:23.767Z,13.60
2019-02-15T16:46:51.683Z,13.40
2019-02-15T16:49:19.563Z,13.20
2019-02-15T16:51:47.480Z,13.00
2019-02-15T16:54:15.363Z,12.80
2019-02-15T16:56:43.262Z,12.60
2019-02-15T16:59:11.331Z,12.40
2019-02-15T17:01:39.215Z,12.20
2019-02-15T17:04:07.141Z,12.00
2019-02-15T17:06:35.023Z,11.90
2019-02-15T17:09:04.628Z,11.80
2019-02-15T17:11:32.455Z,11.60
2019-02-15T17:14:00.293Z,11.50
2019-02-15T17:16:28.241Z,11.30
2019-02-15T17:18:56.214Z,11.10
2019-02-15T17:21:24.100Z,10.90
2019-02-15T17:23:51.952Z,10.70
2019-02-15T17:26:19.949Z,10.40
2019-02-15T17:28:48.059Z,10.30
2019-02-15T17:31:15.978Z,10.20
2019-02-15T17:33:43.896Z,10.10
2019-02-15T17:36:11.751Z,10.10
2019-02-15T17:38:39.640Z,10.00
2019-02-15T17:41:07.506Z,9.90
2019-02-15T17:43:35.339Z,9.90
2019-02-15T17:46:03.291Z,9.80
2019-02-15T17:48:31.194Z,9.70
2019-02-15T17:50:59.107Z,9.60
2019-02-15T17:53:27.279Z,9.50
2019-02-15T17:55:55.129Z,9.30
2019-02-15T17:58:23.067Z,9.10
2019-02-15T18:00:51.055Z,9.00
2019-02-15T18:03:18.968Z,8.90
2019-02-15T18:05:46.837Z,8.70
2019-02-15T18:08:14.771Z,8.60
2019-02-15T18:10:42.628Z,8.50
2019-02-15T18:13:10.459Z,8.40
2019-02-15T18:15:38.382Z,8.30
2019-02-15T18:18:06.348Z,8.30
2019-02-15T18:20:34.228Z,8.20
2019-02-15T18:23:02.051Z,8.20
2019-02-15T18:25:30.015Z,8.30
2019-02-15T18:27:57.878Z,8.20
2019-02-15T18:30:25.954Z,8.10
2019-02-15T18:32:53.906Z,8.00
2019-02-15T18:35:21.749Z,7.90
2019-02-15T18:37:49.567Z,7.80
2019-02-15T18:40:17.504Z,7.80
2019-02-15T18:42:45.455Z,7.60
2019-02-15T18:45:13.943Z,7.60
2019-02-15T18:47:41.863Z,7.50
2019-02-15T18:50:10.001Z,7.40
2019-02-15T18:52:37.935Z,7.40
2019-02-15T18:55:07.359Z,7.30
2019-02-15T18:57:36.809Z,7.30
2019-02-15T19:00:13.284Z,7.40
2019-02-15T19:02:41.204Z,7.50
2019-02-15T19:05:10.115Z,7.70
2019-02-15T19:07:38.179Z,7.80
2019-02-15T19:10:07.593Z,7.90
2019-02-15T19:12:35.515Z,7.90
2019-02-15T19:15:04.144Z,7.90
2019-02-15T19:17:32.040Z,7.90
2019-02-15T19:19:59.996Z,7.70
2019-02-15T19:22:27.901Z,7.70
2019-02-15T19:24:55.848Z,7.60
2019-02-15T19:27:23.758Z,7.50
2019-02-15T19:29:51.675Z,7.40
2019-02-15T19:32:19.600Z,7.40
2019-02-15T19:34:47.500Z,7.30
2019-02-15T19:37:15.411Z,7.20
2019-02-15T19:39:43.304Z,7.10
2019-02-15T19:42:11.646Z,7.00
2019-02-15T19:44:39.500Z,6.90
2019-02-15T19:47:07.415Z,6.80
2019-02-15T19:49:38.831Z,6.70
2019-02-15T19:52:04.907Z,6.60
2019-02-15T19:54:32.764Z,6.50
2019-02-15T19:57:00.739Z,6.40
2019-02-15T19:59:29.081Z,6.30
2019-02-15T20:01:56.969Z,6.30
2019-02-15T20:04:24.925Z,6.30
2019-02-15T20:06:52.849Z,6.30
2019-02-15T20:09:20.804Z,6.40
2019-02-15T20:11:48.810Z,6.40
2019-02-15T20:14:16.757Z,6.50
2019-02-15T20:16:45.707Z,6.60
2019-02-15T20:19:13.578Z,6.70
2019-02-15T20:21:41.464Z,6.70
2019-02-15T20:24:09.427Z,6.80
2019-02-15T20:26:37.366Z,7.00
2019-02-15T20:29:05.504Z,7.10
2019-02-15T20:31:33.367Z,7.20
2019-02-15T20:34:01.272Z,7.30
2019-02-15T20:36:29.151Z,7.40
2019-02-15T20:38:57.082Z,7.40
2019-02-15T20:41:25.000Z,7.40
2019-02-15T20:43:52.893Z,7.50
2019-02-15T20:46:20.920Z,7.50
2019-02-15T20:48:48.785Z,7.50
2019-02-15T20:51:16.745Z,7.60
2019-02-15T20:53:44.863Z,7.60
2019-02-15T20:56:12.815Z,7.80
2019-02-15T20:58:40.710Z,7.80
2019-02-15T21:01:08.629Z,7.90
2019-02-15T21:03:36.546Z,8.00
2019-02-15T21:06:04.454Z,8.00
2019-02-15T21:08:32.484Z,8.10
2019-02-15T21:11:00.350Z,8.10
2019-02-15T21:13:28.384Z,8.10
2019-02-15T21:15:56.214Z,8.20
2019-02-15T21:18:24.050Z,8.20
2019-02-15T21:20:51.930Z,8.30
2019-02-15T21:23:19.945Z,8.40
2019-02-15T21:25:48.099Z,8.40
2019-02-15T21:28:15.987Z,8.50
2019-02-15T21:30:44.075Z,8.60
2019-02-15T21:33:11.952Z,8.70
2019-02-15T21:35:39.870Z,8.80
2019-02-15T21:38:07.823Z,8.90
2019-02-15T21:40:35.730Z,9.00
2019-02-15T21:43:03.705Z,9.10
2019-02-15T21:45:31.675Z,9.00
2019-02-15T21:47:59.528Z,9.00
2019-02-15T21:50:27.476Z,9.10
2019-02-15T21:52:55.490Z,9.10
2019-02-15T21:55:23.418Z,9.00
2019-02-15T21:58:00.661Z,9.00
2019-02-15T22:00:22.562Z,9.00
2019-02-15T22:02:50.475Z,9.00
2019-02-15T22:05:18.331Z,8.90
2019-02-15T22:07:46.211Z,9.00
2019-02-15T22:10:14.141Z,9.00
2019-02-15T22:12:42.086Z,9.00
2019-02-15T22:15:11.015Z,9.10
2019-02-15T22:17:38.940Z,9.20
2019-02-15T22:20:11.048Z,9.20
2019-02-15T22:22:38.972Z,9.10
2019-02-15T22:25:07.567Z,9.20
2019-02-15T22:27:35.539Z,9.00
2019-02-15T22:30:04.956Z,9.00
2019-02-15T22:32:32.869Z,9.00
2019-02-15T22:35:00.783Z,9.00
2019-02-15T22:37:28.696Z,8.90
2019-02-15T22:39:56.609Z,8.90
2019-02-15T22:42:24.546Z,8.90
2019-02-15T22:44:52.396Z,8.90
2019-02-15T22:47:20.251Z,8.90
2019-02-15T22:49:48.186Z,8.90
2019-02-15T22:52:16.071Z,8.80
2019-02-15T22:54:44.000Z,8.80
2019-02-15T22:57:11.896Z,8.80
2019-02-15T22:59:39.750Z,8.80
2019-02-15T23:02:07.752Z,8.90
2019-02-15T23:04:35.735Z,8.80
2019-02-15T23:07:03.639Z,8.80
2019-02-15T23:09:31.475Z,8.80
2019-02-15T23:11:59.419Z,8.80
2019-02-15T23:14:27.260Z,8.90
2019-02-15T23:16:55.222Z,8.80
2019-02-15T23:19:23.147Z,8.70
2019-02-15T23:21:51.064Z,8.70
2019-02-15T23:24:18.970Z,8.70
2019-02-15T23:26:46.914Z,8.60
2019-02-15T23:29:14.828Z,8.50
2019-02-15T23:31:42.784Z,8.40
2019-02-15T23:34:10.722Z,8.30
2019-02-15T23:36:38.554Z,8.30
2019-02-15T23:39:06.540Z,8.30
2019-02-15T23:41:34.442Z,8.30
2019-02-15T23:44:02.391Z,8.20
2019-02-15T23:46:30.254Z,8.20
2019-02-15T23:48:58.314Z,8.20
2019-02-15T23:51:26.151Z,8.20
2019-02-15T23:53:54.019Z,8.20
2019-02-15T23:56:21.927Z,8.10
2019-02-15T23:58:49.781Z,8.10
